Terminal Aerodrome Forecast
Issued by NWS

Home | Current Version | Previous Version | Text Only | Print | Product List | Glossary On
Versions: 1 2 3 4 5 6 7 8 9 10 11 12 13
659
FTUS45 KVEF 102340
TAFDAG
TAF
KDAG 102340Z 1100/1124 27022G31KT P6SM BKN200
     FM110700 27014G24KT P6SM BKN200
     FM111500 28012G18KT P6SM SCT200=

USA.gov is the U.S. government's official web portal to all federal, state and local government web resources and services.